createdAt,value
2022-08-17T00:03:18.411Z,70
2022-08-17T00:06:43.631Z,70
2022-08-17T00:10:08.826Z,70
2022-08-17T00:13:34.032Z,69
2022-08-17T00:16:59.235Z,69
2022-08-17T00:20:29.191Z,70
2022-08-17T00:23:49.639Z,71
2022-08-17T00:27:14.809Z,70
2022-08-17T00:30:51.382Z,70
2022-08-17T00:34:05.233Z,70
2022-08-17T00:37:30.409Z,72
2022-08-17T00:40:59.093Z,71
2022-08-17T00:44:20.831Z,71
2022-08-17T00:47:46.054Z,71
2022-08-17T00:51:11.246Z,71
2022-08-17T00:54:40.981Z,71
2022-08-17T00:58:01.638Z,71
2022-08-17T01:01:26.896Z,70
2022-08-17T01:04:52.073Z,71
2022-08-17T01:08:17.272Z,72
2022-08-17T01:11:42.493Z,71
2022-08-17T01:15:07.745Z,72
2022-08-17T01:18:32.937Z,71
2022-08-17T01:21:58.150Z,72
2022-08-17T01:25:23.355Z,72
2022-08-17T01:28:53.287Z,72
2022-08-17T01:32:13.785Z,73
2022-08-17T01:35:39.019Z,72
2022-08-17T01:39:04.256Z,72
2022-08-17T01:42:29.442Z,72
2022-08-17T01:46:02.887Z,72
2022-08-17T01:49:19.903Z,73
2022-08-17T01:52:45.146Z,72
2022-08-17T01:56:10.347Z,73
2022-08-17T01:59:35.588Z,74
2022-08-17T02:03:00.861Z,73
2022-08-17T02:06:27.405Z,73
2022-08-17T02:09:52.693Z,72
2022-08-17T02:13:16.488Z,73
2022-08-17T02:16:41.697Z,72
2022-08-17T02:20:06.895Z,72
2022-08-17T02:23:32.107Z,73
2022-08-17T02:26:57.319Z,72
2022-08-17T02:30:49.966Z,73
2022-08-17T02:33:47.766Z,74
2022-08-17T02:37:12.985Z,73
2022-08-17T02:40:38.218Z,74
2022-08-17T02:44:03.475Z,74
2022-08-17T02:47:28.761Z,73
2022-08-17T02:50:53.981Z,73
2022-08-17T02:54:40.996Z,73
2022-08-17T02:57:44.398Z,73
2022-08-17T03:01:09.783Z,73
2022-08-17T03:04:35.147Z,73
2022-08-17T03:08:00.067Z,73
2022-08-17T03:11:25.307Z,72
2022-08-17T03:14:50.549Z,73
2022-08-17T03:18:19.061Z,73
2022-08-17T03:21:41.011Z,73
2022-08-17T03:25:09.282Z,74
2022-08-17T03:28:31.450Z,74
2022-08-17T03:31:56.737Z,73
2022-08-17T03:35:21.936Z,74
2022-08-17T03:38:47.161Z,74
2022-08-17T03:42:14.348Z,74
2022-08-17T03:45:37.648Z,74
2022-08-17T03:49:02.890Z,73
2022-08-17T03:52:28.103Z,73
2022-08-17T03:55:53.378Z,72
2022-08-17T03:59:20.837Z,73
2022-08-17T04:02:43.889Z,73
2022-08-17T04:06:09.089Z,74
2022-08-17T04:09:34.304Z,73
2022-08-17T04:12:59.514Z,74
2022-08-17T04:16:24.764Z,74
2022-08-17T04:20:01.502Z,74
2022-08-17T04:23:26.746Z,75
2022-08-17T04:26:53.589Z,74
2022-08-17T04:30:17.206Z,75
2022-08-17T04:33:42.416Z,73
2022-08-17T04:37:07.717Z,73
2022-08-17T04:40:32.922Z,73
2022-08-17T04:43:58.180Z,73
2022-08-17T04:47:23.404Z,74
2022-08-17T04:50:48.663Z,73
2022-08-17T04:54:13.877Z,73
2022-08-17T04:57:43.171Z,73
2022-08-17T05:01:04.419Z,74
2022-08-17T05:04:33.342Z,75
2022-08-17T05:07:54.805Z,75
2022-08-17T05:11:20.074Z,76
2022-08-17T05:14:45.243Z,77
2022-08-17T05:18:10.455Z,77
2022-08-17T05:21:35.673Z,77
2022-08-17T05:25:01.794Z,75
2022-08-17T05:28:27.377Z,76
2022-08-17T05:31:51.343Z,76
2022-08-17T05:35:16.569Z,76
2022-08-17T05:38:41.758Z,76
2022-08-17T05:42:07.030Z,76
2022-08-17T05:45:54.190Z,76
2022-08-17T05:48:57.406Z,74
2022-08-17T05:52:22.639Z,76
2022-08-17T05:55:47.866Z,75
2022-08-17T05:59:13.090Z,75
2022-08-17T06:02:38.293Z,75
2022-08-17T06:06:03.500Z,72
2022-08-17T06:09:33.105Z,74
2022-08-17T06:12:53.944Z,72
2022-08-17T06:16:28.139Z,73
2022-08-17T06:19:44.441Z,72
2022-08-17T06:23:09.710Z,72
2022-08-17T06:26:38.404Z,70
2022-08-17T06:30:00.201Z,66
2022-08-17T06:33:25.445Z,63
2022-08-17T06:36:50.682Z,62
2022-08-17T06:40:15.965Z,65
2022-08-17T06:43:43.139Z,63
2022-08-17T06:47:06.274Z,63
2022-08-17T06:50:31.473Z,62
2022-08-17T06:53:56.713Z,62
2022-08-17T06:57:21.913Z,60
2022-08-17T07:00:47.377Z,60
2022-08-17T07:04:12.444Z,59
2022-08-17T07:07:37.503Z,60
2022-08-17T07:11:02.752Z,59
2022-08-17T07:14:27.965Z,59
2022-08-17T07:17:53.191Z,60
2022-08-17T07:21:19.882Z,58
2022-08-17T07:24:43.653Z,60
2022-08-17T07:28:08.897Z,59
2022-08-17T07:31:34.119Z,59
2022-08-17T07:35:00.101Z,59
2022-08-17T07:38:26.683Z,59
2022-08-17T07:41:53.652Z,58
2022-08-17T07:45:15.773Z,58
2022-08-17T07:48:41.096Z,57
2022-08-17T07:52:13.484Z,57
2022-08-17T07:55:31.607Z,56
2022-08-17T07:58:56.811Z,57
2022-08-17T08:02:22.128Z,56
2022-08-17T08:05:50.446Z,56
2022-08-17T08:09:12.433Z,55
2022-08-17T08:12:37.652Z,54
2022-08-17T08:16:02.837Z,54
2022-08-17T08:19:28.047Z,54
2022-08-17T08:22:53.254Z,53
2022-08-17T08:26:18.910Z,52
2022-08-17T08:29:43.693Z,52
2022-08-17T08:33:08.892Z,52
2022-08-17T08:36:57.147Z,52
2022-08-17T08:39:59.371Z,52
2022-08-17T08:43:24.495Z,51
2022-08-17T08:46:49.742Z,51
2022-08-17T08:50:30.087Z,50
2022-08-17T08:53:40.157Z,50
2022-08-17T08:57:24.072Z,51
2022-08-17T09:00:30.533Z,50
2022-08-17T09:04:06.690Z,51
2022-08-17T09:07:20.926Z,51
2022-08-17T09:10:46.144Z,50
2022-08-17T09:14:21.065Z,51
2022-08-17T09:17:36.529Z,51
2022-08-17T09:21:01.739Z,52
2022-08-17T09:24:26.935Z,52
2022-08-17T09:27:52.446Z,50
2022-08-17T09:31:17.343Z,50
2022-08-17T09:34:43.482Z,49
2022-08-17T09:38:07.712Z,48
2022-08-17T09:41:32.894Z,48
2022-08-17T09:44:58.095Z,48
2022-08-17T09:48:23.286Z,49
2022-08-17T09:51:48.472Z,48
2022-08-17T09:55:13.899Z,46
2022-08-17T09:58:39.081Z,47
2022-08-17T10:02:04.270Z,48
2022-08-17T10:05:29.515Z,46
2022-08-17T10:08:54.694Z,47
2022-08-17T10:12:19.895Z,46
2022-08-17T10:15:45.079Z,47
2022-08-17T10:19:10.440Z,46
2022-08-17T10:22:38.060Z,44
2022-08-17T10:26:00.795Z,45
2022-08-17T10:29:25.979Z,44
2022-08-17T10:32:51.188Z,43
2022-08-17T10:36:16.405Z,43
2022-08-17T10:39:50.716Z,43
2022-08-17T10:43:06.850Z,43
2022-08-17T10:46:32.056Z,42
2022-08-17T10:49:57.262Z,43
2022-08-17T10:53:22.604Z,43
2022-08-17T10:56:47.820Z,44
2022-08-17T11:00:13.024Z,41
2022-08-17T11:03:38.228Z,42
2022-08-17T11:07:03.446Z,43
2022-08-17T11:10:28.672Z,42
2022-08-17T11:13:53.850Z,41
2022-08-17T11:17:19.066Z,42
2022-08-17T11:20:44.299Z,42
2022-08-17T11:24:09.500Z,42
2022-08-17T11:27:34.729Z,40
2022-08-17T11:31:00.085Z,41
2022-08-17T11:34:25.216Z,41
2022-08-17T11:37:50.500Z,43
2022-08-17T11:41:15.761Z,41
2022-08-17T11:44:41.006Z,42
2022-08-17T11:51:31.438Z,41
2022-08-17T11:55:07.698Z,41
2022-08-17T11:58:21.953Z,41
2022-08-17T12:01:47.232Z,40
2022-08-17T12:05:12.572Z,42
2022-08-17T12:08:37.767Z,41
2022-08-17T12:12:13.506Z,42
2022-08-17T12:15:28.309Z,42
2022-08-17T12:18:53.516Z,40
2022-08-17T12:22:18.727Z,40
2022-08-17T12:25:43.968Z,40
2022-08-17T12:29:09.467Z,39
2022-08-17T12:32:34.450Z,37
2022-08-17T12:35:59.844Z,38
2022-08-17T12:39:25.168Z,37
2022-08-17T12:42:50.197Z,38
2022-08-17T12:46:15.616Z,38
2022-08-17T12:49:40.582Z,37
2022-08-17T12:53:05.888Z,36
2022-08-17T12:56:41.162Z,36
2022-08-17T13:00:17.998Z,36
2022-08-17T13:03:43.231Z,36
2022-08-17T13:07:08.454Z,36
2022-08-17T13:10:33.666Z,36
2022-08-17T13:13:58.966Z,37
2022-08-17T13:17:24.312Z,36
2022-08-17T13:20:49.630Z,36
2022-08-17T13:24:14.858Z,35
2022-08-17T13:27:40.152Z,35
2022-08-17T13:31:05.375Z,36
2022-08-17T13:34:30.569Z,36
2022-08-17T13:37:55.784Z,36
2022-08-17T13:41:21.024Z,34
2022-08-17T13:45:01.802Z,35
2022-08-17T13:48:27.037Z,36
2022-08-17T13:51:52.265Z,35
2022-08-17T13:55:17.449Z,35
2022-08-17T13:58:42.689Z,35
2022-08-17T14:02:07.951Z,35
2022-08-17T14:05:33.130Z,33
2022-08-17T14:08:58.363Z,35
2022-08-17T14:12:23.595Z,36
2022-08-17T14:15:55.522Z,35
2022-08-17T14:19:14.047Z,36
2022-08-17T14:22:39.233Z,35
2022-08-17T14:26:04.586Z,35
2022-08-17T14:29:29.783Z,36
2022-08-17T15:05:22.237Z,37
2022-08-17T15:08:47.443Z,37
2022-08-17T15:12:12.663Z,37
2022-08-17T15:15:37.866Z,38
2022-08-17T15:19:03.080Z,38
2022-08-17T15:22:28.306Z,37
2022-08-17T15:25:53.531Z,38
2022-08-17T15:29:18.724Z,38
2022-08-17T15:32:45.744Z,38
2022-08-17T15:36:09.156Z,38
2022-08-17T15:39:34.401Z,38
2022-08-17T15:42:59.570Z,38
2022-08-17T15:46:24.794Z,38
2022-08-17T15:49:49.977Z,38
2022-08-17T15:53:15.187Z,38
2022-08-17T15:56:40.394Z,39
2022-08-17T16:00:05.604Z,38
2022-08-17T16:03:46.680Z,41
2022-08-17T16:06:56.136Z,41
2022-08-17T16:10:21.365Z,41
2022-08-17T16:13:47.445Z,40
2022-08-17T16:17:29.727Z,40
2022-08-17T16:20:36.995Z,42
2022-08-17T16:24:02.214Z,42
2022-08-17T16:27:27.433Z,41
2022-08-17T17:34:57.766Z,46
2022-08-17T18:14:08.276Z,48
